sensor_id;sensor_type;location;lat;lon;timestamp;P1;durP1;ratioP1;P2;durP2;ratioP2
58354;SDS011;44160;49.080;19.302;2023-05-15T00:00:14;4.75;;;3.83;;
58354;SDS011;44160;49.080;19.302;2023-05-15T00:02:40;5.82;;;3.78;;
58354;SDS011;44160;49.080;19.302;2023-05-15T00:05:07;4.05;;;3.30;;
58354;SDS011;44160;49.080;19.302;2023-05-15T00:07:34;5.75;;;3.40;;
58354;SDS011;44160;49.080;19.302;2023-05-15T00:10:00;4.22;;;3.10;;
58354;SDS011;44160;49.080;19.302;2023-05-15T00:12:26;4.63;;;3.72;;
58354;SDS011;44160;49.080;19.302;2023-05-15T00:14:52;5.43;;;4.07;;
58354;SDS011;44160;49.080;19.302;2023-05-15T00:17:22;6.45;;;4.20;;
58354;SDS011;44160;49.080;19.302;2023-05-15T00:19:48;7.15;;;3.70;;
58354;SDS011;44160;49.080;19.302;2023-05-15T00:22:14;6.70;;;4.60;;
58354;SDS011;44160;49.080;19.302;2023-05-15T00:24:40;5.97;;;5.00;;
58354;SDS011;44160;49.080;19.302;2023-05-15T00:27:06;5.78;;;5.22;;
58354;SDS011;44160;49.080;19.302;2023-05-15T00:29:32;5.53;;;3.63;;
58354;SDS011;44160;49.080;19.302;2023-05-15T00:31:58;5.10;;;3.67;;
58354;SDS011;44160;49.080;19.302;2023-05-15T00:34:24;5.10;;;3.47;;
58354;SDS011;44160;49.080;19.302;2023-05-15T00:36:50;7.78;;;4.05;;
58354;SDS011;44160;49.080;19.302;2023-05-15T00:39:16;5.63;;;3.78;;
58354;SDS011;44160;49.080;19.302;2023-05-15T00:41:42;7.15;;;3.65;;
58354;SDS011;44160;49.080;19.302;2023-05-15T00:44:09;5.47;;;3.58;;
58354;SDS011;44160;49.080;19.302;2023-05-15T00:46:36;8.52;;;3.97;;
58354;SDS011;44160;49.080;19.302;2023-05-15T00:49:03;7.13;;;4.40;;
58354;SDS011;44160;49.080;19.302;2023-05-15T00:51:31;4.30;;;3.05;;
58354;SDS011;44160;49.080;19.302;2023-05-15T00:53:57;3.72;;;2.90;;
58354;SDS011;44160;49.080;19.302;2023-05-15T00:56:24;4.95;;;2.85;;
58354;SDS011;44160;49.080;19.302;2023-05-15T00:58:50;3.42;;;2.40;;
58354;SDS011;44160;49.080;19.302;2023-05-15T01:01:16;4.25;;;2.20;;
58354;SDS011;44160;49.080;19.302;2023-05-15T01:03:43;3.63;;;2.72;;
58354;SDS011;44160;49.080;19.302;2023-05-15T01:06:09;4.25;;;3.30;;
58354;SDS011;44160;49.080;19.302;2023-05-15T01:08:45;4.80;;;3.22;;
58354;SDS011;44160;49.080;19.302;2023-05-15T01:11:12;3.85;;;2.92;;
58354;SDS011;44160;49.080;19.302;2023-05-15T01:13:38;6.10;;;3.10;;
58354;SDS011;44160;49.080;19.302;2023-05-15T01:16:05;7.60;;;3.10;;
58354;SDS011;44160;49.080;19.302;2023-05-15T01:18:31;5.07;;;3.60;;
58354;SDS011;44160;49.080;19.302;2023-05-15T01:26:01;5.28;;;2.58;;
58354;SDS011;44160;49.080;19.302;2023-05-15T01:28:30;4.80;;;2.65;;
58354;SDS011;44160;49.080;19.302;2023-05-15T01:30:57;3.92;;;2.70;;
58354;SDS011;44160;49.080;19.302;2023-05-15T01:33:27;5.28;;;2.85;;
58354;SDS011;44160;49.080;19.302;2023-05-15T01:36:02;3.28;;;2.63;;
58354;SDS011;44160;49.080;19.302;2023-05-15T01:44:05;3.25;;;2.70;;
58354;SDS011;44160;49.080;19.302;2023-05-15T01:46:33;3.35;;;2.95;;
58354;SDS011;44160;49.080;19.302;2023-05-15T01:49:01;5.40;;;3.17;;
58354;SDS011;44160;49.080;19.302;2023-05-15T01:51:28;3.30;;;2.95;;
58354;SDS011;44160;49.080;19.302;2023-05-15T01:53:54;3.25;;;2.47;;
58354;SDS011;44160;49.080;19.302;2023-05-15T01:56:23;3.88;;;2.40;;
58354;SDS011;44160;49.080;19.302;2023-05-15T01:58:50;3.50;;;2.25;;
58354;SDS011;44160;49.080;19.302;2023-05-15T02:01:17;4.38;;;2.53;;
58354;SDS011;44160;49.080;19.302;2023-05-15T02:03:43;3.88;;;2.35;;
58354;SDS011;44160;49.080;19.302;2023-05-15T02:06:10;2.70;;;2.50;;
58354;SDS011;44160;49.080;19.302;2023-05-15T02:08:37;5.63;;;2.33;;
58354;SDS011;44160;49.080;19.302;2023-05-15T02:11:06;2.70;;;2.00;;
58354;SDS011;44160;49.080;19.302;2023-05-15T02:13:33;2.10;;;1.90;;
58354;SDS011;44160;49.080;19.302;2023-05-15T02:15:59;3.67;;;2.30;;
58354;SDS011;44160;49.080;19.302;2023-05-15T02:18:25;3.75;;;2.13;;
58354;SDS011;44160;49.080;19.302;2023-05-15T02:20:53;3.47;;;2.38;;
58354;SDS011;44160;49.080;19.302;2023-05-15T02:23:19;3.55;;;1.95;;
58354;SDS011;44160;49.080;19.302;2023-05-15T02:25:53;3.28;;;2.50;;
58354;SDS011;44160;49.080;19.302;2023-05-15T02:28:29;3.85;;;2.40;;
58354;SDS011;44160;49.080;19.302;2023-05-15T02:31:03;2.28;;;2.08;;
58354;SDS011;44160;49.080;19.302;2023-05-15T02:33:40;4.72;;;2.55;;
58354;SDS011;44160;49.080;19.302;2023-05-15T02:36:08;3.70;;;2.95;;
58354;SDS011;44160;49.080;19.302;2023-05-15T02:38:36;6.30;;;3.50;;
58354;SDS011;44160;49.080;19.302;2023-05-15T02:41:03;4.15;;;3.38;;
58354;SDS011;44160;49.080;19.302;2023-05-15T02:43:30;5.75;;;3.42;;
58354;SDS011;44160;49.080;19.302;2023-05-15T02:45:57;4.05;;;2.88;;
58354;SDS011;44160;49.080;19.302;2023-05-15T02:48:24;3.63;;;2.95;;
58354;SDS011;44160;49.080;19.302;2023-05-15T02:50:51;5.90;;;3.47;;
58354;SDS011;44160;49.080;19.302;2023-05-15T02:53:18;5.15;;;3.95;;
58354;SDS011;44160;49.080;19.302;2023-05-15T02:55:44;3.47;;;3.13;;
58354;SDS011;44160;49.080;19.302;2023-05-15T02:58:10;5.32;;;3.53;;
58354;SDS011;44160;49.080;19.302;2023-05-15T03:00:36;5.07;;;3.67;;
58354;SDS011;44160;49.080;19.302;2023-05-15T03:03:02;4.32;;;2.55;;
58354;SDS011;44160;49.080;19.302;2023-05-15T03:05:28;3.83;;;2.88;;
58354;SDS011;44160;49.080;19.302;2023-05-15T03:07:54;3.00;;;2.70;;
58354;SDS011;44160;49.080;19.302;2023-05-15T03:10:20;5.28;;;3.40;;
58354;SDS011;44160;49.080;19.302;2023-05-15T03:12:48;3.45;;;3.10;;
58354;SDS011;44160;49.080;19.302;2023-05-15T03:15:14;5.00;;;3.80;;
58354;SDS011;44160;49.080;19.302;2023-05-15T03:17:40;4.05;;;3.45;;
58354;SDS011;44160;49.080;19.302;2023-05-15T03:20:06;6.57;;;3.58;;
58354;SDS011;44160;49.080;19.302;2023-05-15T03:22:35;4.63;;;3.60;;
58354;SDS011;44160;49.080;19.302;2023-05-15T03:25:01;4.20;;;2.97;;
58354;SDS011;44160;49.080;19.302;2023-05-15T03:27:27;5.85;;;3.28;;
58354;SDS011;44160;49.080;19.302;2023-05-15T03:29:53;6.28;;;3.53;;
58354;SDS011;44160;49.080;19.302;2023-05-15T03:32:19;5.55;;;3.22;;
58354;SDS011;44160;49.080;19.302;2023-05-15T03:34:46;4.68;;;2.47;;
58354;SDS011;44160;49.080;19.302;2023-05-15T03:37:12;3.80;;;2.83;;
58354;SDS011;44160;49.080;19.302;2023-05-15T03:39:38;4.10;;;2.50;;
58354;SDS011;44160;49.080;19.302;2023-05-15T03:42:04;3.53;;;2.25;;
58354;SDS011;44160;49.080;19.302;2023-05-15T03:44:30;5.20;;;2.47;;
58354;SDS011;44160;49.080;19.302;2023-05-15T03:46:57;6.72;;;2.60;;
58354;SDS011;44160;49.080;19.302;2023-05-15T03:49:23;9.52;;;3.22;;
58354;SDS011;44160;49.080;19.302;2023-05-15T03:51:49;6.40;;;4.32;;
58354;SDS011;44160;49.080;19.302;2023-05-15T03:54:15;9.63;;;3.38;;
58354;SDS011;44160;49.080;19.302;2023-05-15T03:56:41;5.72;;;3.55;;
58354;SDS011;44160;49.080;19.302;2023-05-15T03:59:07;4.97;;;3.60;;
58354;SDS011;44160;49.080;19.302;2023-05-15T04:01:33;5.47;;;3.63;;
58354;SDS011;44160;49.080;19.302;2023-05-15T04:03:59;6.10;;;2.80;;
58354;SDS011;44160;49.080;19.302;2023-05-15T04:06:25;2.80;;;2.55;;
58354;SDS011;44160;49.080;19.302;2023-05-15T04:08:51;2.55;;;2.10;;
58354;SDS011;44160;49.080;19.302;2023-05-15T04:11:17;2.10;;;1.90;;
58354;SDS011;44160;49.080;19.302;2023-05-15T04:13:44;2.75;;;1.90;;
58354;SDS011;44160;49.080;19.302;2023-05-15T04:16:10;3.35;;;2.50;;
58354;SDS011;44160;49.080;19.302;2023-05-15T04:18:36;3.78;;;2.35;;
58354;SDS011;44160;49.080;19.302;2023-05-15T04:21:02;3.85;;;2.50;;
58354;SDS011;44160;49.080;19.302;2023-05-15T04:23:28;4.10;;;2.85;;
58354;SDS011;44160;49.080;19.302;2023-05-15T04:25:54;2.92;;;2.63;;
58354;SDS011;44160;49.080;19.302;2023-05-15T04:28:20;6.60;;;3.72;;
58354;SDS011;44160;49.080;19.302;2023-05-15T04:30:46;5.78;;;2.67;;
58354;SDS011;44160;49.080;19.302;2023-05-15T04:33:13;9.65;;;3.63;;
58354;SDS011;44160;49.080;19.302;2023-05-15T04:35:39;6.45;;;3.45;;
58354;SDS011;44160;49.080;19.302;2023-05-15T04:38:05;4.07;;;2.63;;
58354;SDS011;44160;49.080;19.302;2023-05-15T04:40:32;6.78;;;2.90;;
58354;SDS011;44160;49.080;19.302;2023-05-15T04:42:58;4.55;;;2.58;;
58354;SDS011;44160;49.080;19.302;2023-05-15T04:45:24;3.10;;;2.42;;
58354;SDS011;44160;49.080;19.302;2023-05-15T04:47:50;11.15;;;3.83;;
58354;SDS011;44160;49.080;19.302;2023-05-15T04:50:16;10.40;;;3.90;;
58354;SDS011;44160;49.080;19.302;2023-05-15T04:52:42;5.90;;;3.70;;
58354;SDS011;44160;49.080;19.302;2023-05-15T04:55:09;6.30;;;2.95;;
58354;SDS011;44160;49.080;19.302;2023-05-15T04:57:35;10.90;;;3.10;;
58354;SDS011;44160;49.080;19.302;2023-05-15T05:00:02;11.98;;;3.55;;
58354;SDS011;44160;49.080;19.302;2023-05-15T05:02:34;7.07;;;2.70;;
58354;SDS011;44160;49.080;19.302;2023-05-15T05:05:00;5.13;;;3.47;;
58354;SDS011;44160;49.080;19.302;2023-05-15T05:07:26;3.15;;;2.30;;
58354;SDS011;44160;49.080;19.302;2023-05-15T05:09:52;4.32;;;3.22;;
58354;SDS011;44160;49.080;19.302;2023-05-15T05:12:18;6.15;;;3.20;;
58354;SDS011;44160;49.080;19.302;2023-05-15T05:14:44;3.55;;;2.78;;
58354;SDS011;44160;49.080;19.302;2023-05-15T05:17:10;4.43;;;2.72;;
58354;SDS011;44160;49.080;19.302;2023-05-15T05:19:36;3.53;;;2.72;;
58354;SDS011;44160;49.080;19.302;2023-05-15T05:22:03;6.13;;;2.72;;
58354;SDS011;44160;49.080;19.302;2023-05-15T05:24:30;6.30;;;2.22;;
58354;SDS011;44160;49.080;19.302;2023-05-15T05:26:56;4.05;;;2.75;;
58354;SDS011;44160;49.080;19.302;2023-05-15T05:29:22;4.15;;;2.63;;
58354;SDS011;44160;49.080;19.302;2023-05-15T05:31:48;4.57;;;2.75;;
58354;SDS011;44160;49.080;19.302;2023-05-15T05:34:15;3.65;;;3.03;;
58354;SDS011;44160;49.080;19.302;2023-05-15T05:36:41;5.45;;;2.30;;
58354;SDS011;44160;49.080;19.302;2023-05-15T05:39:07;3.90;;;2.30;;
58354;SDS011;44160;49.080;19.302;2023-05-15T05:41:33;3.85;;;2.17;;
58354;SDS011;44160;49.080;19.302;2023-05-15T05:43:59;3.30;;;1.58;;
58354;SDS011;44160;49.080;19.302;2023-05-15T05:46:25;3.45;;;2.20;;
58354;SDS011;44160;49.080;19.302;2023-05-15T05:48:51;4.60;;;2.60;;
58354;SDS011;44160;49.080;19.302;2023-05-15T05:51:17;10.27;;;2.75;;
58354;SDS011;44160;49.080;19.302;2023-05-15T05:53:43;3.22;;;1.70;;
58354;SDS011;44160;49.080;19.302;2023-05-15T05:56:09;3.35;;;2.20;;
58354;SDS011;44160;49.080;19.302;2023-05-15T05:58:35;2.88;;;2.03;;
58354;SDS011;44160;49.080;19.302;2023-05-15T06:01:01;4.43;;;2.20;;
58354;SDS011;44160;49.080;19.302;2023-05-15T06:03:29;5.78;;;2.53;;
58354;SDS011;44160;49.080;19.302;2023-05-15T06:05:55;3.38;;;1.80;;
58354;SDS011;44160;49.080;19.302;2023-05-15T06:08:21;1.50;;;1.20;;
58354;SDS011;44160;49.080;19.302;2023-05-15T06:10:50;2.10;;;1.20;;
58354;SDS011;44160;49.080;19.302;2023-05-15T06:13:16;1.95;;;1.13;;
58354;SDS011;44160;49.080;19.302;2023-05-15T06:15:42;1.33;;;1.10;;
58354;SDS011;44160;49.080;19.302;2023-05-15T06:18:10;1.35;;;1.10;;
58354;SDS011;44160;49.080;19.302;2023-05-15T06:20:36;7.13;;;2.08;;
58354;SDS011;44160;49.080;19.302;2023-05-15T06:23:02;5.55;;;2.33;;
58354;SDS011;44160;49.080;19.302;2023-05-15T06:25:28;3.92;;;2.20;;
58354;SDS011;44160;49.080;19.302;2023-05-15T06:27:54;2.25;;;1.58;;
58354;SDS011;44160;49.080;19.302;2023-05-15T06:30:23;2.83;;;1.98;;
58354;SDS011;44160;49.080;19.302;2023-05-15T06:32:49;2.42;;;1.75;;
58354;SDS011;44160;49.080;19.302;2023-05-15T06:35:15;2.47;;;1.40;;
58354;SDS011;44160;49.080;19.302;2023-05-15T06:37:41;2.25;;;1.70;;
58354;SDS011;44160;49.080;19.302;2023-05-15T06:40:08;2.50;;;1.45;;
58354;SDS011;44160;49.080;19.302;2023-05-15T06:42:34;2.20;;;1.40;;
58354;SDS011;44160;49.080;19.302;2023-05-15T06:45:00;3.10;;;1.33;;
58354;SDS011;44160;49.080;19.302;2023-05-15T06:47:26;4.03;;;1.85;;
58354;SDS011;44160;49.080;19.302;2023-05-15T06:49:52;3.15;;;1.50;;
58354;SDS011;44160;49.080;19.302;2023-05-15T06:52:19;5.07;;;1.67;;
58354;SDS011;44160;49.080;19.302;2023-05-15T06:54:45;1.38;;;1.10;;
58354;SDS011;44160;49.080;19.302;2023-05-15T06:57:12;4.30;;;1.83;;
58354;SDS011;44160;49.080;19.302;2023-05-15T06:59:38;5.28;;;2.65;;
58354;SDS011;44160;49.080;19.302;2023-05-15T07:02:04;1.67;;;1.05;;
58354;SDS011;44160;49.080;19.302;2023-05-15T07:04:30;5.40;;;2.40;;
58354;SDS011;44160;49.080;19.302;2023-05-15T07:06:57;10.07;;;6.07;;
58354;SDS011;44160;49.080;19.302;2023-05-15T07:09:23;6.72;;;3.38;;
58354;SDS011;44160;49.080;19.302;2023-05-15T07:11:49;2.45;;;1.30;;
58354;SDS011;44160;49.080;19.302;2023-05-15T07:14:15;6.15;;;1.85;;
58354;SDS011;44160;49.080;19.302;2023-05-15T07:16:41;7.13;;;3.40;;
58354;SDS011;44160;49.080;19.302;2023-05-15T07:19:08;1.83;;;1.30;;
58354;SDS011;44160;49.080;19.302;2023-05-15T07:21:34;2.35;;;1.52;;
58354;SDS011;44160;49.080;19.302;2023-05-15T07:24:01;4.05;;;2.00;;
58354;SDS011;44160;49.080;19.302;2023-05-15T07:26:29;2.17;;;1.25;;
58354;SDS011;44160;49.080;19.302;2023-05-15T07:28:58;4.25;;;2.40;;
58354;SDS011;44160;49.080;19.302;2023-05-15T07:31:24;3.47;;;1.10;;
58354;SDS011;44160;49.080;19.302;2023-05-15T07:33:50;2.88;;;1.05;;
58354;SDS011;44160;49.080;19.302;2023-05-15T07:36:16;3.00;;;1.52;;
58354;SDS011;44160;49.080;19.302;2023-05-15T07:38:42;3.25;;;1.63;;
58354;SDS011;44160;49.080;19.302;2023-05-15T07:41:11;5.10;;;2.17;;
58354;SDS011;44160;49.080;19.302;2023-05-15T07:43:37;1.42;;;1.10;;
58354;SDS011;44160;49.080;19.302;2023-05-15T07:46:03;1.92;;;1.05;;
58354;SDS011;44160;49.080;19.302;2023-05-15T07:48:29;2.50;;;0.90;;
58354;SDS011;44160;49.080;19.302;2023-05-15T07:50:55;2.38;;;0.80;;
58354;SDS011;44160;49.080;19.302;2023-05-15T07:53:21;0.77;;;0.60;;
58354;SDS011;44160;49.080;19.302;2023-05-15T07:55:48;1.02;;;0.80;;
58354;SDS011;44160;49.080;19.302;2023-05-15T07:58:14;3.53;;;0.80;;
58354;SDS011;44160;49.080;19.302;2023-05-15T08:00:41;1.27;;;0.50;;
58354;SDS011;44160;49.080;19.302;2023-05-15T08:03:07;2.65;;;0.60;;
58354;SDS011;44160;49.080;19.302;2023-05-15T08:05:33;0.55;;;0.43;;
58354;SDS011;44160;49.080;19.302;2023-05-15T08:08:00;7.53;;;0.70;;
58354;SDS011;44160;49.080;19.302;2023-05-15T08:10:26;1.55;;;1.10;;
58354;SDS011;44160;49.080;19.302;2023-05-15T08:12:52;1.48;;;0.73;;
58354;SDS011;44160;49.080;19.302;2023-05-15T08:15:18;0.50;;;0.50;;
58354;SDS011;44160;49.080;19.302;2023-05-15T08:17:44;0.80;;;0.70;;
58354;SDS011;44160;49.080;19.302;2023-05-15T08:20:10;1.17;;;0.90;;
58354;SDS011;44160;49.080;19.302;2023-05-15T08:22:37;0.50;;;0.50;;
58354;SDS011;44160;49.080;19.302;2023-05-15T08:25:03;0.63;;;0.57;;
58354;SDS011;44160;49.080;19.302;2023-05-15T08:27:30;0.60;;;0.60;;
58354;SDS011;44160;49.080;19.302;2023-05-15T08:29:56;0.50;;;0.50;;
58354;SDS011;44160;49.080;19.302;2023-05-15T08:32:22;1.40;;;0.60;;
58354;SDS011;44160;49.080;19.302;2023-05-15T08:34:49;0.75;;;0.55;;
58354;SDS011;44160;49.080;19.302;2023-05-15T08:37:15;1.38;;;1.25;;
58354;SDS011;44160;49.080;19.302;2023-05-15T08:39:41;3.05;;;0.88;;
58354;SDS011;44160;49.080;19.302;2023-05-15T08:42:09;2.33;;;0.70;;
58354;SDS011;44160;49.080;19.302;2023-05-15T08:44:40;0.70;;;0.70;;
58354;SDS011;44160;49.080;19.302;2023-05-15T08:47:07;0.82;;;0.70;;
58354;SDS011;44160;49.080;19.302;2023-05-15T08:52:03;1.85;;;1.10;;
58354;SDS011;44160;49.080;19.302;2023-05-15T08:54:29;2.45;;;1.40;;
58354;SDS011;44160;49.080;19.302;2023-05-15T08:56:55;1.75;;;0.73;;
58354;SDS011;44160;49.080;19.302;2023-05-15T08:59:22;2.65;;;0.60;;
58354;SDS011;44160;49.080;19.302;2023-05-15T09:01:48;0.95;;;0.73;;
58354;SDS011;44160;49.080;19.302;2023-05-15T09:04:15;1.40;;;0.68;;
58354;SDS011;44160;49.080;19.302;2023-05-15T09:06:41;1.10;;;1.00;;
58354;SDS011;44160;49.080;19.302;2023-05-15T09:09:08;1.00;;;0.80;;
58354;SDS011;44160;49.080;19.302;2023-05-15T09:11:38;2.58;;;1.10;;
58354;SDS011;44160;49.080;19.302;2023-05-15T09:14:04;4.45;;;1.20;;
58354;SDS011;44160;49.080;19.302;2023-05-15T09:16:31;1.67;;;0.90;;
58354;SDS011;44160;49.080;19.302;2023-05-15T09:18:57;0.82;;;0.70;;
58354;SDS011;44160;49.080;19.302;2023-05-15T09:21:25;1.00;;;0.80;;
58354;SDS011;44160;49.080;19.302;2023-05-15T09:23:52;2.20;;;0.57;;
58354;SDS011;44160;49.080;19.302;2023-05-15T09:26:20;0.70;;;0.70;;
58354;SDS011;44160;49.080;19.302;2023-05-15T09:28:47;0.75;;;0.60;;
58354;SDS011;44160;49.080;19.302;2023-05-15T09:31:13;1.48;;;0.70;;
58354;SDS011;44160;49.080;19.302;2023-05-15T09:33:39;0.73;;;0.70;;
58354;SDS011;44160;49.080;19.302;2023-05-15T09:36:07;0.80;;;0.80;;
58354;SDS011;44160;49.080;19.302;2023-05-15T09:38:34;1.55;;;0.82;;
58354;SDS011;44160;49.080;19.302;2023-05-15T09:41:05;0.60;;;0.60;;
58354;SDS011;44160;49.080;19.302;2023-05-15T09:43:32;1.75;;;0.90;;
58354;SDS011;44160;49.080;19.302;2023-05-15T09:45:59;0.85;;;0.63;;
58354;SDS011;44160;49.080;19.302;2023-05-15T09:48:25;1.20;;;0.90;;
58354;SDS011;44160;49.080;19.302;2023-05-15T09:50:51;4.22;;;1.45;;
58354;SDS011;44160;49.080;19.302;2023-05-15T09:53:17;1.83;;;1.00;;
58354;SDS011;44160;49.080;19.302;2023-05-15T09:55:43;2.85;;;0.77;;
58354;SDS011;44160;49.080;19.302;2023-05-15T09:58:10;1.90;;;1.00;;
58354;SDS011;44160;49.080;19.302;2023-05-15T10:00:37;1.30;;;0.60;;
58354;SDS011;44160;49.080;19.302;2023-05-15T10:03:04;0.40;;;0.40;;
58354;SDS011;44160;49.080;19.302;2023-05-15T10:05:31;1.35;;;0.60;;
58354;SDS011;44160;49.080;19.302;2023-05-15T10:07:57;1.30;;;0.70;;
58354;SDS011;44160;49.080;19.302;2023-05-15T10:10:24;0.80;;;0.70;;
58354;SDS011;44160;49.080;19.302;2023-05-15T10:12:50;0.65;;;0.60;;
58354;SDS011;44160;49.080;19.302;2023-05-15T10:15:17;0.50;;;0.50;;
58354;SDS011;44160;49.080;19.302;2023-05-15T10:17:43;0.55;;;0.50;;
58354;SDS011;44160;49.080;19.302;2023-05-15T10:20:10;0.50;;;0.50;;
58354;SDS011;44160;49.080;19.302;2023-05-15T10:22:37;1.05;;;0.70;;
58354;SDS011;44160;49.080;19.302;2023-05-15T10:27:35;0.50;;;0.50;;
58354;SDS011;44160;49.080;19.302;2023-05-15T10:30:06;0.50;;;0.50;;
58354;SDS011;44160;49.080;19.302;2023-05-15T10:32:36;0.60;;;0.50;;
58354;SDS011;44160;49.080;19.302;2023-05-15T10:35:02;0.93;;;0.57;;
58354;SDS011;44160;49.080;19.302;2023-05-15T10:37:29;1.02;;;0.60;;
58354;SDS011;44160;49.080;19.302;2023-05-15T10:39:55;1.27;;;0.80;;
58354;SDS011;44160;49.080;19.302;2023-05-15T10:42:22;0.82;;;0.70;;
58354;SDS011;44160;49.080;19.302;2023-05-15T10:44:51;0.75;;;0.50;;
58354;SDS011;44160;49.080;19.302;2023-05-15T10:47:18;0.85;;;0.50;;
58354;SDS011;44160;49.080;19.302;2023-05-15T10:49:44;0.95;;;0.60;;
58354;SDS011;44160;49.080;19.302;2023-05-15T10:52:10;0.82;;;0.63;;
58354;SDS011;44160;49.080;19.302;2023-05-15T10:54:36;0.60;;;0.50;;
58354;SDS011;44160;49.080;19.302;2023-05-15T10:57:03;2.83;;;1.10;;
58354;SDS011;44160;49.080;19.302;2023-05-15T10:59:33;0.90;;;0.57;;
58354;SDS011;44160;49.080;19.302;2023-05-15T11:04:45;2.10;;;0.57;;
58354;SDS011;44160;49.080;19.302;2023-05-15T11:07:12;1.65;;;0.70;;
58354;SDS011;44160;49.080;19.302;2023-05-15T11:09:40;1.20;;;0.77;;
58354;SDS011;44160;49.080;19.302;2023-05-15T11:12:07;1.02;;;0.45;;
58354;SDS011;44160;49.080;19.302;2023-05-15T11:14:37;0.90;;;0.50;;
58354;SDS011;44160;49.080;19.302;2023-05-15T11:17:04;1.55;;;0.65;;
58354;SDS011;44160;49.080;19.302;2023-05-15T11:19:32;2.00;;;0.70;;
58354;SDS011;44160;49.080;19.302;2023-05-15T11:22:00;2.15;;;1.40;;
58354;SDS011;44160;49.080;19.302;2023-05-15T11:24:31;0.77;;;0.70;;
58354;SDS011;44160;49.080;19.302;2023-05-15T11:27:00;1.23;;;0.60;;
58354;SDS011;44160;49.080;19.302;2023-05-15T11:29:30;1.48;;;0.80;;
58354;SDS011;44160;49.080;19.302;2023-05-15T11:31:56;2.72;;;0.70;;
58354;SDS011;44160;49.080;19.302;2023-05-15T11:34:31;0.50;;;0.50;;
58354;SDS011;44160;49.080;19.302;2023-05-15T11:36:58;2.97;;;0.60;;
58354;SDS011;44160;49.080;19.302;2023-05-15T11:39:32;1.63;;;0.73;;
58354;SDS011;44160;49.080;19.302;2023-05-15T11:42:10;2.58;;;0.60;;
58354;SDS011;44160;49.080;19.302;2023-05-15T11:44:36;0.73;;;0.50;;
58354;SDS011;44160;49.080;19.302;2023-05-15T11:47:02;3.05;;;0.65;;
58354;SDS011;44160;49.080;19.302;2023-05-15T11:49:29;2.45;;;0.65;;
58354;SDS011;44160;49.080;19.302;2023-05-15T11:51:55;2.38;;;0.63;;
58354;SDS011;44160;49.080;19.302;2023-05-15T11:54:22;3.03;;;0.68;;
58354;SDS011;44160;49.080;19.302;2023-05-15T11:56:48;2.58;;;0.70;;
58354;SDS011;44160;49.080;19.302;2023-05-15T11:59:16;1.50;;;0.73;;
58354;SDS011;44160;49.080;19.302;2023-05-15T12:01:42;0.70;;;0.70;;
58354;SDS011;44160;49.080;19.302;2023-05-15T12:04:14;2.35;;;0.82;;
58354;SDS011;44160;49.080;19.302;2023-05-15T12:06:57;2.50;;;0.70;;
58354;SDS011;44160;49.080;19.302;2023-05-15T12:09:26;0.60;;;0.60;;
58354;SDS011;44160;49.080;19.302;2023-05-15T12:11:53;0.73;;;0.70;;
58354;SDS011;44160;49.080;19.302;2023-05-15T12:14:25;2.80;;;0.98;;
58354;SDS011;44160;49.080;19.302;2023-05-15T12:16:58;2.85;;;0.80;;
58354;SDS011;44160;49.080;19.302;2023-05-15T12:19:27;0.77;;;0.63;;
58354;SDS011;44160;49.080;19.302;2023-05-15T12:21:53;2.42;;;0.60;;
58354;SDS011;44160;49.080;19.302;2023-05-15T12:24:19;0.77;;;0.63;;
58354;SDS011;44160;49.080;19.302;2023-05-15T12:26:46;0.68;;;0.60;;
58354;SDS011;44160;49.080;19.302;2023-05-15T12:29:13;0.90;;;0.68;;
58354;SDS011;44160;49.080;19.302;2023-05-15T12:31:39;0.60;;;0.60;;
58354;SDS011;44160;49.080;19.302;2023-05-15T12:34:05;0.73;;;0.50;;
58354;SDS011;44160;49.080;19.302;2023-05-15T12:36:31;1.92;;;0.90;;
58354;SDS011;44160;49.080;19.302;2023-05-15T12:38:58;0.55;;;0.55;;
58354;SDS011;44160;49.080;19.302;2023-05-15T12:41:30;1.58;;;0.82;;
58354;SDS011;44160;49.080;19.302;2023-05-15T12:43:56;2.17;;;0.68;;
58354;SDS011;44160;49.080;19.302;2023-05-15T12:46:22;1.13;;;0.80;;
58354;SDS011;44160;49.080;19.302;2023-05-15T12:48:48;1.42;;;0.70;;
58354;SDS011;44160;49.080;19.302;2023-05-15T12:51:15;0.80;;;0.60;;
58354;SDS011;44160;49.080;19.302;2023-05-15T12:53:42;0.60;;;0.60;;
58354;SDS011;44160;49.080;19.302;2023-05-15T12:56:08;1.17;;;1.00;;
58354;SDS011;44160;49.080;19.302;2023-05-15T12:58:34;0.80;;;0.73;;
58354;SDS011;44160;49.080;19.302;2023-05-15T13:01:00;0.98;;;0.70;;
58354;SDS011;44160;49.080;19.302;2023-05-15T13:03:27;0.77;;;0.77;;
58354;SDS011;44160;49.080;19.302;2023-05-15T13:05:53;2.67;;;0.82;;
58354;SDS011;44160;49.080;19.302;2023-05-15T13:08:22;1.85;;;0.60;;
58354;SDS011;44160;49.080;19.302;2023-05-15T13:10:54;0.70;;;0.70;;
58354;SDS011;44160;49.080;19.302;2023-05-15T13:13:21;3.15;;;0.73;;
58354;SDS011;44160;49.080;19.302;2023-05-15T13:15:47;3.20;;;1.00;;
58354;SDS011;44160;49.080;19.302;2023-05-15T13:18:15;1.67;;;1.15;;
58354;SDS011;44160;49.080;19.302;2023-05-15T13:20:45;0.70;;;0.70;;
58354;SDS011;44160;49.080;19.302;2023-05-15T13:23:21;2.30;;;1.08;;
58354;SDS011;44160;49.080;19.302;2023-05-15T13:25:50;0.90;;;0.77;;
58354;SDS011;44160;49.080;19.302;2023-05-15T13:28:16;3.28;;;1.00;;
58354;SDS011;44160;49.080;19.302;2023-05-15T13:30:43;2.90;;;1.00;;
58354;SDS011;44160;49.080;19.302;2023-05-15T13:33:12;1.35;;;1.00;;
58354;SDS011;44160;49.080;19.302;2023-05-15T13:35:39;1.95;;;1.10;;
58354;SDS011;44160;49.080;19.302;2023-05-15T13:38:05;1.60;;;1.20;;
58354;SDS011;44160;49.080;19.302;2023-05-15T13:40:31;3.10;;;1.02;;
58354;SDS011;44160;49.080;19.302;2023-05-15T13:42:59;1.02;;;0.90;;
58354;SDS011;44160;49.080;19.302;2023-05-15T13:45:25;1.80;;;0.90;;
58354;SDS011;44160;49.080;19.302;2023-05-15T13:47:51;1.52;;;0.73;;
58354;SDS011;44160;49.080;19.302;2023-05-15T13:50:17;1.90;;;0.90;;
58354;SDS011;44160;49.080;19.302;2023-05-15T13:52:44;1.58;;;0.70;;
58354;SDS011;44160;49.080;19.302;2023-05-15T13:55:12;5.75;;;2.67;;
58354;SDS011;44160;49.080;19.302;2023-05-15T13:57:44;2.00;;;1.20;;
58354;SDS011;44160;49.080;19.302;2023-05-15T14:00:13;3.25;;;1.55;;
58354;SDS011;44160;49.080;19.302;2023-05-15T14:02:57;2.50;;;1.38;;
58354;SDS011;44160;49.080;19.302;2023-05-15T14:05:32;6.07;;;1.55;;
58354;SDS011;44160;49.080;19.302;2023-05-15T14:07:58;6.75;;;3.53;;
58354;SDS011;44160;49.080;19.302;2023-05-15T14:10:25;1.92;;;1.40;;
58354;SDS011;44160;49.080;19.302;2023-05-15T14:12:53;2.83;;;1.20;;
58354;SDS011;44160;49.080;19.302;2023-05-15T14:15:22;3.17;;;1.88;;
58354;SDS011;44160;49.080;19.302;2023-05-15T14:17:48;3.53;;;1.92;;
58354;SDS011;44160;49.080;19.302;2023-05-15T14:20:18;5.15;;;3.28;;
58354;SDS011;44160;49.080;19.302;2023-05-15T14:22:44;3.90;;;2.35;;
58354;SDS011;44160;49.080;19.302;2023-05-15T14:25:10;3.67;;;1.83;;
58354;SDS011;44160;49.080;19.302;2023-05-15T14:27:36;5.45;;;2.15;;
58354;SDS011;44160;49.080;19.302;2023-05-15T14:30:02;1.67;;;1.48;;
58354;SDS011;44160;49.080;19.302;2023-05-15T14:32:28;3.50;;;2.03;;
58354;SDS011;44160;49.080;19.302;2023-05-15T14:34:54;3.83;;;1.70;;
58354;SDS011;44160;49.080;19.302;2023-05-15T14:37:23;3.30;;;1.90;;
58354;SDS011;44160;49.080;19.302;2023-05-15T14:39:50;4.93;;;2.08;;
58354;SDS011;44160;49.080;19.302;2023-05-15T14:42:19;5.30;;;2.13;;
58354;SDS011;44160;49.080;19.302;2023-05-15T14:44:48;13.00;;;5.25;;
58354;SDS011;44160;49.080;19.302;2023-05-15T14:47:14;2.92;;;1.80;;
58354;SDS011;44160;49.080;19.302;2023-05-15T14:49:40;3.35;;;1.95;;